Time;durP1;ratioP1;P1;durP2;ratioP2;P2;SDS_P1;SDS_P2;PMS_P1;PMS_P2;Temp;Humidity;BMP_temperature;BMP_pressure;BME280_temperature;BME280_humidity;BME280_pressure;Samples;Min_cycle;Max_cycle;Signal;HPM_P1;HPM_P2
2021/11/23 00:01:57;;;;;;;15.93;3.80;;;;;;;;;;4876354;29;20076;-68
2021/11/23 00:04:41;;;;;;;15.07;3.65;;;;;;;;;;4898436;29;20452;-67
2021/11/23 00:07:11;;;;;;;14.10;3.60;;;;;;;;;;4913396;29;20059;-67
2021/11/23 00:09:42;;;;;;;11.38;2.90;;;;;;;;;;4936623;29;20063;-68
2021/11/23 00:12:12;;;;;;;15.20;3.60;;;;;;;;;;4951435;29;20052;-68
2021/11/23 00:14:43;;;;;;;13.95;3.72;;;;;;;;;;4935685;29;20055;-70
2021/11/23 00:17:14;;;;;;;12.05;3.30;;;;;;;;;;4924608;29;20078;-71
2021/11/23 00:19:44;;;;;;;14.55;3.40;;;;;;;;;;4932141;29;20496;-70
2021/11/23 00:22:15;;;;;;;13.13;3.03;;;;;;;;;;4932322;29;20064;-71
2021/11/23 00:24:45;;;;;;;11.20;3.78;;;;;;;;;;4893987;29;20048;-70
2021/11/23 00:27:16;;;;;;;12.02;3.80;;;;;;;;;;4894547;29;20064;-70
2021/11/23 00:29:46;;;;;;;11.20;3.50;;;;;;;;;;4867750;29;20494;-70
2021/11/23 00:32:17;;;;;;;13.40;4.03;;;;;;;;;;4875514;29;20072;-70
2021/11/23 00:34:47;;;;;;;9.73;3.45;;;;;;;;;;4875799;29;20068;-68
2021/11/23 00:37:17;;;;;;;10.95;3.20;;;;;;;;;;4875439;29;20497;-71
2021/11/23 00:39:48;;;;;;;11.45;3.78;;;;;;;;;;4875456;29;20421;-70
2021/11/23 00:42:19;;;;;;;12.38;4.28;;;;;;;;;;4875259;29;20064;-70
2021/11/23 00:44:49;;;;;;;14.13;4.53;;;;;;;;;;4856762;29;20072;-70
2021/11/23 00:47:19;;;;;;;17.08;5.13;;;;;;;;;;4856405;29;20065;-70
2021/11/23 00:49:50;;;;;;;13.98;5.35;;;;;;;;;;4865754;29;20061;-71
2021/11/23 00:52:20;;;;;;;12.57;4.25;;;;;;;;;;4874978;29;20414;-68
2021/11/23 00:54:51;;;;;;;12.10;4.53;;;;;;;;;;4911974;29;20063;-71
2021/11/23 00:57:21;;;;;;;14.20;4.88;;;;;;;;;;4931284;29;20052;-68
2021/11/23 00:59:51;;;;;;;12.07;4.43;;;;;;;;;;4912148;29;20048;-67
2021/11/23 01:02:22;;;;;;;20.27;4.20;;;;;;;;;;4915679;29;20059;-70
2021/11/23 01:04:53;;;;;;;10.77;4.30;;;;;;;;;;4931388;29;20060;-68
2021/11/23 01:07:23;;;;;;;18.45;4.40;;;;;;;;;;4950102;28;20058;-69
2021/11/23 01:09:54;;;;;;;13.07;4.55;;;;;;;;;;4969963;28;20058;-68
2021/11/23 01:12:24;;;;;;;17.52;4.00;;;;;;;;;;4969445;28;20066;-68
2021/11/23 01:14:56;;;;;;;13.43;3.70;;;;;;;;;;4970149;28;20055;-69
2021/11/23 01:17:26;;;;;;;18.65;4.35;;;;;;;;;;4979600;28;20054;-68
2021/11/23 01:19:57;;;;;;;15.73;4.15;;;;;;;;;;4974894;28;20057;-68
2021/11/23 01:22:27;;;;;;;18.60;4.20;;;;;;;;;;4992830;28;20057;-69
2021/11/23 01:24:58;;;;;;;13.23;4.30;;;;;;;;;;5012576;28;20077;-69
2021/11/23 01:27:28;;;;;;;14.55;3.95;;;;;;;;;;4973124;28;20483;-68
2021/11/23 01:29:59;;;;;;;12.57;3.97;;;;;;;;;;4973159;28;20059;-71
2021/11/23 01:32:29;;;;;;;13.48;4.65;;;;;;;;;;4972793;28;20043;-70
2021/11/23 01:34:59;;;;;;;14.75;4.50;;;;;;;;;;4963587;28;20055;-69
2021/11/23 01:37:30;;;;;;;14.20;4.72;;;;;;;;;;4963168;28;20066;-69
2021/11/23 01:40:01;;;;;;;13.82;4.28;;;;;;;;;;4957802;28;20055;-70
2021/11/23 01:42:31;;;;;;;15.23;5.10;;;;;;;;;;4972983;28;20054;-69
2021/11/23 01:45:03;;;;;;;19.45;4.85;;;;;;;;;;4982305;28;20042;-70
2021/11/23 01:47:34;;;;;;;16.27;4.70;;;;;;;;;;4991982;28;20051;-72
2021/11/23 01:50:06;;;;;;;14.82;3.90;;;;;;;;;;4992657;28;20065;-69
2021/11/23 01:52:37;;;;;;;13.25;4.40;;;;;;;;;;4953209;28;20455;-71
2021/11/23 01:55:09;;;;;;;14.85;4.28;;;;;;;;;;4953716;28;20063;-71
2021/11/23 01:57:42;;;;;;;15.65;4.50;;;;;;;;;;4933943;29;20492;-71
2021/11/23 02:00:13;;;;;;;15.52;4.18;;;;;;;;;;4944575;28;20063;-70
2021/11/23 02:02:44;;;;;;;13.43;4.15;;;;;;;;;;4953466;28;20047;-70
2021/11/23 02:05:15;;;;;;;9.80;3.97;;;;;;;;;;4952842;28;20055;-70
2021/11/23 02:07:46;;;;;;;16.77;4.10;;;;;;;;;;4952954;28;20073;-70
2021/11/23 02:10:17;;;;;;;15.18;4.38;;;;;;;;;;4937855;29;20059;-75
2021/11/23 02:12:48;;;;;;;16.70;3.90;;;;;;;;;;4899230;29;20048;-70
2021/11/23 02:15:19;;;;;;;19.30;4.85;;;;;;;;;;4914852;29;20060;-71
2021/11/23 02:17:51;;;;;;;17.55;4.90;;;;;;;;;;4876534;29;20166;-74
2021/11/23 02:20:24;;;;;;;9.93;3.78;;;;;;;;;;4851548;29;20061;-70
2021/11/23 02:22:54;;;;;;;13.82;4.18;;;;;;;;;;4873547;29;20060;-71
2021/11/23 02:25:25;;;;;;;10.20;4.05;;;;;;;;;;4858916;29;20057;-71
2021/11/23 02:27:56;;;;;;;12.95;4.07;;;;;;;;;;4858578;29;20434;-70
2021/11/23 02:30:26;;;;;;;15.43;4.57;;;;;;;;;;4879020;29;20503;-70
2021/11/23 02:32:56;;;;;;;9.57;4.18;;;;;;;;;;4876468;29;20053;-73
2021/11/23 02:35:27;;;;;;;17.23;3.75;;;;;;;;;;4870133;29;20068;-72
2021/11/23 02:37:58;;;;;;;7.35;3.45;;;;;;;;;;4861440;29;20061;-70
2021/11/23 02:40:29;;;;;;;10.95;3.85;;;;;;;;;;4854949;29;20061;-71
2021/11/23 02:43:00;;;;;;;9.77;2.97;;;;;;;;;;4830049;29;20058;-72
2021/11/23 02:45:31;;;;;;;12.73;3.25;;;;;;;;;;4858151;29;20054;-70
2021/11/23 02:48:06;;;;;;;10.98;3.78;;;;;;;;;;4876735;29;20057;-69
2021/11/23 02:50:37;;;;;;;13.65;4.03;;;;;;;;;;4848074;29;20053;-68
2021/11/23 02:53:07;;;;;;;13.82;4.82;;;;;;;;;;4839823;29;20064;-69
2021/11/23 02:55:38;;;;;;;10.52;4.35;;;;;;;;;;4868217;29;20056;-70
2021/11/23 02:58:10;;;;;;;14.50;5.35;;;;;;;;;;4867807;29;20053;-70
2021/11/23 03:00:41;;;;;;;18.05;5.57;;;;;;;;;;4876442;29;20251;-69
2021/11/23 03:03:11;;;;;;;16.83;5.72;;;;;;;;;;4876468;29;20068;-70
2021/11/23 03:05:42;;;;;;;16.90;5.50;;;;;;;;;;4878662;29;20419;-69
2021/11/23 03:08:16;;;;;;;19.45;5.53;;;;;;;;;;4894791;29;20048;-70
2021/11/23 03:10:46;;;;;;;17.48;5.50;;;;;;;;;;4894997;29;20065;-70
2021/11/23 03:13:17;;;;;;;12.90;5.35;;;;;;;;;;4864130;29;20057;-72
2021/11/23 03:15:48;;;;;;;13.38;5.25;;;;;;;;;;4894704;29;20800;-70
2021/11/23 03:18:18;;;;;;;15.98;5.50;;;;;;;;;;4879514;29;20068;-70
2021/11/23 03:20:50;;;;;;;15.18;5.53;;;;;;;;;;4895103;29;20060;-70
2021/11/23 03:23:22;;;;;;;14.80;5.63;;;;;;;;;;4916859;29;20051;-70
2021/11/23 03:25:53;;;;;;;13.13;4.82;;;;;;;;;;4932925;29;20055;-69
2021/11/23 03:28:25;;;;;;;14.63;4.78;;;;;;;;;;4934439;28;20058;-70
2021/11/23 03:30:55;;;;;;;12.82;4.72;;;;;;;;;;4952035;29;20062;-70
2021/11/23 03:33:25;;;;;;;13.88;4.95;;;;;;;;;;4970639;28;20047;-70
2021/11/23 03:35:56;;;;;;;16.10;5.03;;;;;;;;;;4971212;28;20055;-70
2021/11/23 03:38:28;;;;;;;13.27;4.40;;;;;;;;;;4970994;28;20551;-70
2021/11/23 03:40:59;;;;;;;13.93;4.30;;;;;;;;;;4970962;28;20054;-70
2021/11/23 03:43:29;;;;;;;19.95;5.25;;;;;;;;;;4970703;28;20050;-71
2021/11/23 03:45:59;;;;;;;11.25;4.28;;;;;;;;;;4991584;28;20062;-70
2021/11/23 03:48:29;;;;;;;10.32;4.75;;;;;;;;;;4951325;29;20051;-76
2021/11/23 03:51:00;;;;;;;13.82;4.63;;;;;;;;;;4951857;29;20059;-69
2021/11/23 03:53:31;;;;;;;14.23;4.90;;;;;;;;;;4990893;28;20054;-69
2021/11/23 03:56:01;;;;;;;11.75;4.47;;;;;;;;;;5009578;28;20054;-69
2021/11/23 03:58:31;;;;;;;12.68;5.05;;;;;;;;;;4993725;28;20421;-69
2021/11/23 04:01:02;;;;;;;11.45;4.45;;;;;;;;;;4993699;28;20054;-70
2021/11/23 04:03:34;;;;;;;15.68;4.88;;;;;;;;;;4993689;28;20042;-75
2021/11/23 04:06:06;;;;;;;13.80;4.32;;;;;;;;;;4989706;28;20055;-72
2021/11/23 04:08:36;;;;;;;11.63;4.30;;;;;;;;;;4990074;28;20434;-70
2021/11/23 04:11:06;;;;;;;11.98;4.57;;;;;;;;;;4999917;28;20077;-69
2021/11/23 04:13:38;;;;;;;11.75;4.50;;;;;;;;;;5009264;28;20165;-69
2021/11/23 04:16:09;;;;;;;17.48;5.05;;;;;;;;;;4989578;28;20061;-69
2021/11/23 04:18:40;;;;;;;12.32;4.53;;;;;;;;;;4970060;28;20066;-69
2021/11/23 04:21:12;;;;;;;14.98;4.30;;;;;;;;;;4970140;28;20169;-73
2021/11/23 04:23:42;;;;;;;14.98;3.88;;;;;;;;;;4931838;29;20447;-72
2021/11/23 04:26:13;;;;;;;8.93;3.53;;;;;;;;;;4942298;28;20062;-69
2021/11/23 04:28:44;;;;;;;7.53;3.40;;;;;;;;;;4950908;28;20055;-70
2021/11/23 04:31:14;;;;;;;8.32;3.55;;;;;;;;;;4961480;28;20055;-70
2021/11/23 04:33:45;;;;;;;12.25;3.33;;;;;;;;;;4970138;28;20526;-71
2021/11/23 04:36:16;;;;;;;9.70;3.50;;;;;;;;;;4954109;28;20061;-69
2021/11/23 04:38:46;;;;;;;6.97;2.85;;;;;;;;;;4938568;28;20058;-71
2021/11/23 04:41:16;;;;;;;7.80;2.70;;;;;;;;;;4931378;29;20047;-70
2021/11/23 04:43:48;;;;;;;12.45;2.92;;;;;;;;;;4912329;29;20055;-70
2021/11/23 04:46:18;;;;;;;16.65;3.88;;;;;;;;;;4893413;29;20509;-72
2021/11/23 04:48:49;;;;;;;9.48;3.33;;;;;;;;;;4877988;29;20049;-69
2021/11/23 04:51:20;;;;;;;9.57;3.28;;;;;;;;;;4893671;29;20056;-69
2021/11/23 04:53:51;;;;;;;17.35;3.58;;;;;;;;;;4922139;29;20052;-70
2021/11/23 04:56:22;;;;;;;8.05;2.92;;;;;;;;;;4929753;29;20516;-72
2021/11/23 04:58:53;;;;;;;11.10;3.22;;;;;;;;;;4938882;29;20063;-70
2021/11/23 05:01:23;;;;;;;10.70;3.40;;;;;;;;;;4945207;29;20423;-70
2021/11/23 05:03:55;;;;;;;7.40;3.33;;;;;;;;;;4954199;28;20047;-72
2021/11/23 05:06:26;;;;;;;10.45;3.50;;;;;;;;;;4953811;29;20066;-69
2021/11/23 05:08:56;;;;;;;7.60;3.95;;;;;;;;;;4954447;29;20062;-71
2021/11/23 05:11:27;;;;;;;9.30;3.83;;;;;;;;;;4938633;29;20059;-70
2021/11/23 05:14:00;;;;;;;12.88;4.05;;;;;;;;;;4938430;29;20059;-74
2021/11/23 05:16:31;;;;;;;10.68;3.67;;;;;;;;;;4938601;29;20059;-72
2021/11/23 05:19:01;;;;;;;13.05;3.95;;;;;;;;;;4915781;29;20056;-69
2021/11/23 05:21:32;;;;;;;10.43;4.05;;;;;;;;;;4895786;29;20057;-70
2021/11/23 05:24:05;;;;;;;11.98;4.10;;;;;;;;;;4898905;29;20052;-70
2021/11/23 05:26:37;;;;;;;13.32;3.55;;;;;;;;;;4924156;29;20055;-70
2021/11/23 05:29:10;;;;;;;11.60;3.45;;;;;;;;;;4915996;29;20056;-69
2021/11/23 05:31:40;;;;;;;;;;;;;;;;;;4935279;29;20066;-70
2021/11/23 05:34:10;;;;;;;8.48;3.65;;;;;;;;;;4934434;29;19922;-69
2021/11/23 05:36:41;;;;;;;10.68;3.55;;;;;;;;;;4934664;29;20066;-70
2021/11/23 05:39:11;;;;;;;9.88;3.03;;;;;;;;;;4926478;29;20059;-70
2021/11/23 05:41:41;;;;;;;7.88;2.95;;;;;;;;;;4919333;29;20066;-70
2021/11/23 05:44:12;;;;;;;8.23;2.80;;;;;;;;;;4918505;29;20082;-70
2021/11/23 05:46:43;;;;;;;9.95;2.40;;;;;;;;;;4896290;29;20056;-71
2021/11/23 05:49:16;;;;;;;10.85;3.00;;;;;;;;;;4896772;29;20057;-72
2021/11/23 05:51:47;;;;;;;12.52;3.10;;;;;;;;;;4896496;29;20067;-70
2021/11/23 05:54:17;;;;;;;10.82;3.35;;;;;;;;;;4896824;29;20048;-70
2021/11/23 05:56:48;;;;;;;9.60;3.00;;;;;;;;;;4869003;29;20044;-70
2021/11/23 05:59:23;;;;;;;9.27;3.33;;;;;;;;;;4877577;29;20060;-70
2021/11/23 06:01:54;;;;;;;8.23;2.90;;;;;;;;;;4896211;29;20060;-70
2021/11/23 06:04:24;;;;;;;6.32;2.92;;;;;;;;;;4896430;29;20064;-70
2021/11/23 06:06:55;;;;;;;7.68;3.17;;;;;;;;;;4880897;29;20129;-71
2021/11/23 06:09:26;;;;;;;11.57;3.55;;;;;;;;;;4885606;29;20069;-72
2021/11/23 06:11:56;;;;;;;5.95;3.08;;;;;;;;;;4915047;29;20055;-71
2021/11/23 06:14:27;;;;;;;10.30;3.00;;;;;;;;;;4900175;29;20067;-70
2021/11/23 06:16:57;;;;;;;8.05;2.97;;;;;;;;;;4914919;29;20068;-70
2021/11/23 06:19:28;;;;;;;7.13;2.65;;;;;;;;;;4915177;29;20052;-72
2021/11/23 06:21:59;;;;;;;6.00;2.90;;;;;;;;;;4914971;29;20056;-70
2021/11/23 06:24:29;;;;;;;11.15;3.63;;;;;;;;;;4906065;29;20057;-72
2021/11/23 06:26:59;;;;;;;9.10;3.83;;;;;;;;;;4914880;29;20056;-71
2021/11/23 06:29:29;;;;;;;11.07;4.60;;;;;;;;;;4933691;29;20052;-71
2021/11/23 06:32:00;;;;;;;8.30;3.70;;;;;;;;;;4895974;29;20049;-70
2021/11/23 06:34:32;;;;;;;11.65;4.28;;;;;;;;;;4916082;29;20051;-71
2021/11/23 06:37:03;;;;;;;8.93;3.97;;;;;;;;;;4924116;29;20052;-71
2021/11/23 06:39:33;;;;;;;10.48;4.25;;;;;;;;;;4934086;29;20448;-69
2021/11/23 06:42:04;;;;;;;9.48;4.43;;;;;;;;;;4933504;29;20074;-70
2021/11/23 06:44:35;;;;;;;12.88;4.03;;;;;;;;;;4934260;29;20058;-70
2021/11/23 06:47:06;;;;;;;11.13;3.90;;;;;;;;;;4898886;29;20068;-72
2021/11/23 06:49:36;;;;;;;10.50;4.13;;;;;;;;;;4914288;29;20052;-71
2021/11/23 06:52:07;;;;;;;8.75;3.80;;;;;;;;;;4913906;29;20084;-71
2021/11/23 06:54:38;;;;;;;9.07;3.50;;;;;;;;;;4899053;29;20457;-70
2021/11/23 06:57:09;;;;;;;8.98;3.28;;;;;;;;;;4914399;29;20063;-70
2021/11/23 06:59:40;;;;;;;9.98;3.78;;;;;;;;;;4914376;29;20067;-69
2021/11/23 07:02:11;;;;;;;11.65;4.18;;;;;;;;;;4882562;29;20063;-70
2021/11/23 07:04:43;;;;;;;8.95;3.85;;;;;;;;;;4910288;29;20056;-70
2021/11/23 07:07:13;;;;;;;12.25;3.88;;;;;;;;;;4895344;29;20061;-70
2021/11/23 07:09:44;;;;;;;12.82;5.00;;;;;;;;;;4857689;29;20057;-70
2021/11/23 07:12:14;;;;;;;10.32;4.63;;;;;;;;;;4857901;29;20061;-72
2021/11/23 07:14:45;;;;;;;14.13;4.22;;;;;;;;;;4844742;29;20490;-71
2021/11/23 07:17:16;;;;;;;11.15;3.65;;;;;;;;;;4848058;29;20064;-71
2021/11/23 07:19:49;;;;;;;8.25;4.05;;;;;;;;;;4867416;29;20060;-70
2021/11/23 07:22:20;;;;;;;9.38;4.13;;;;;;;;;;4876409;29;20102;-71
2021/11/23 07:24:50;;;;;;;9.93;4.60;;;;;;;;;;4875224;29;20061;-70
2021/11/23 07:27:21;;;;;;;9.00;4.18;;;;;;;;;;4857268;29;20060;-70
2021/11/23 07:29:52;;;;;;;12.13;3.40;;;;;;;;;;4875532;29;20053;-71
2021/11/23 07:32:22;;;;;;;10.80;3.38;;;;;;;;;;4860930;29;20056;-79
2021/11/23 07:34:52;;;;;;;11.40;3.47;;;;;;;;;;4909751;29;20048;-70
2021/11/23 07:37:26;;;;;;;7.20;3.55;;;;;;;;;;4863468;29;20053;-70
2021/11/23 07:39:57;;;;;;;7.10;4.20;;;;;;;;;;4894375;29;20056;-70
2021/11/23 07:42:27;;;;;;;10.32;4.40;;;;;;;;;;4904955;29;20064;-69
2021/11/23 07:44:57;;;;;;;10.93;4.22;;;;;;;;;;4894563;29;20067;-71
2021/11/23 07:47:28;;;;;;;8.13;3.85;;;;;;;;;;4894425;29;20056;-71
2021/11/23 07:49:59;;;;;;;13.43;4.53;;;;;;;;;;4894698;29;20056;-71
2021/11/23 07:52:29;;;;;;;13.30;4.43;;;;;;;;;;4903897;29;20052;-71
2021/11/23 07:54:59;;;;;;;10.98;4.28;;;;;;;;;;4865691;29;20056;-71
2021/11/23 07:57:31;;;;;;;10.73;4.50;;;;;;;;;;4856931;29;20074;-74
2021/11/23 08:00:02;;;;;;;9.43;4.07;;;;;;;;;;4856544;29;20053;-71
2021/11/23 08:02:40;;;;;;;8.82;4.22;;;;;;;;;;4842696;29;20600;-71
2021/11/23 08:05:11;;;;;;;11.30;4.80;;;;;;;;;;4846510;29;20419;-70
2021/11/23 08:07:42;;;;;;;15.30;5.90;;;;;;;;;;4826507;29;20061;-70
2021/11/23 08:10:12;;;;;;;14.38;6.15;;;;;;;;;;4857087;29;20064;-70
2021/11/23 08:12:45;;;;;;;12.30;5.60;;;;;;;;;;4857280;29;20065;-70
2021/11/23 08:15:15;;;;;;;;;;;;;;;;;;4857512;29;20064;-71
2021/11/23 08:17:47;;;;;;;13.93;5.55;;;;;;;;;;4889058;29;19930;-71
2021/11/23 08:20:19;;;;;;;10.82;5.90;;;;;;;;;;4912812;29;20056;-71
2021/11/23 08:22:51;;;;;;;7.93;4.32;;;;;;;;;;4938874;28;20047;-71
2021/11/23 08:25:22;;;;;;;10.13;4.13;;;;;;;;;;4938341;28;20062;-70
2021/11/23 08:27:54;;;;;;;6.95;3.65;;;;;;;;;;4950919;29;20055;-70
2021/11/23 08:30:25;;;;;;;9.10;4.25;;;;;;;;;;4950869;29;20058;-71
2021/11/23 08:32:56;;;;;;;11.52;4.90;;;;;;;;;;4926350;28;20070;-70
2021/11/23 08:35:27;;;;;;;12.68;4.05;;;;;;;;;;4969613;28;20530;-72
2021/11/23 08:37:57;;;;;;;9.18;3.92;;;;;;;;;;4981957;28;20058;-71
2021/11/23 08:40:28;;;;;;;8.75;4.22;;;;;;;;;;4989924;28;20057;-70
2021/11/23 08:42:59;;;;;;;10.23;3.85;;;;;;;;;;4989596;28;20057;-71
2021/11/23 08:45:29;;;;;;;9.07;3.75;;;;;;;;;;4950305;28;20055;-72
2021/11/23 08:48:00;;;;;;;9.05;4.22;;;;;;;;;;4950696;28;20136;-71
2021/11/23 08:50:31;;;;;;;6.43;3.70;;;;;;;;;;4969186;28;20051;-71
2021/11/23 08:53:07;;;;;;;8.65;3.50;;;;;;;;;;4950087;28;20058;-74
2021/11/23 08:55:38;;;;;;;9.35;3.30;;;;;;;;;;4950380;28;20051;-71
2021/11/23 08:58:10;;;;;;;8.48;3.80;;;;;;;;;;4934240;28;20059;-71
2021/11/23 09:00:42;;;;;;;8.10;3.25;;;;;;;;;;4950459;28;20055;-71
2021/11/23 09:03:13;;;;;;;8.82;3.53;;;;;;;;;;4915748;29;20066;-71
2021/11/23 09:05:44;;;;;;;10.57;3.65;;;;;;;;;;4919994;29;20063;-72
2021/11/23 09:08:15;;;;;;;8.55;3.33;;;;;;;;;;4927679;29;20532;-72
2021/11/23 09:10:47;;;;;;;7.63;3.53;;;;;;;;;;4934238;29;20488;-71
2021/11/23 09:13:18;;;;;;;9.20;3.33;;;;;;;;;;4931155;29;20056;-72
2021/11/23 09:15:49;;;;;;;6.72;3.10;;;;;;;;;;4949944;29;20051;-73
2021/11/23 09:18:19;;;;;;;10.40;3.60;;;;;;;;;;4950367;29;20063;-71
2021/11/23 09:20:50;;;;;;;8.48;3.58;;;;;;;;;;4950262;29;20062;-71
2021/11/23 09:23:22;;;;;;;8.40;3.78;;;;;;;;;;4912079;29;20064;-71
2021/11/23 09:25:53;;;;;;;10.75;4.22;;;;;;;;;;4912255;29;20520;-71
2021/11/23 09:28:23;;;;;;;13.25;5.53;;;;;;;;;;4923469;29;20566;-71
2021/11/23 09:30:56;;;;;;;14.50;5.38;;;;;;;;;;4931571;29;20060;-74
2021/11/23 09:33:26;;;;;;;13.27;5.53;;;;;;;;;;4930782;29;20063;-70
2021/11/23 09:35:58;;;;;;;13.38;5.53;;;;;;;;;;4930989;29;20064;-70
2021/11/23 09:38:29;;;;;;;13.45;5.60;;;;;;;;;;4916025;29;20060;-71
2021/11/23 09:41:00;;;;;;;14.25;5.78;;;;;;;;;;4943162;29;20066;-69
2021/11/23 09:43:31;;;;;;;7.45;4.28;;;;;;;;;;4954386;29;20055;-70
2021/11/23 09:46:02;;;;;;;13.32;4.65;;;;;;;;;;4902695;29;20575;-71
2021/11/23 09:48:33;;;;;;;9.85;5.40;;;;;;;;;;4918963;29;20052;-70
2021/11/23 09:51:04;;;;;;;12.52;4.72;;;;;;;;;;4955482;28;20574;-69
2021/11/23 09:53:34;;;;;;;11.10;4.47;;;;;;;;;;4973077;28;20062;-70
2021/11/23 09:56:05;;;;;;;10.68;4.50;;;;;;;;;;4973053;28;20534;-70
2021/11/23 09:58:36;;;;;;;10.40;3.90;;;;;;;;;;4957086;28;20519;-69
2021/11/23 10:01:08;;;;;;;10.43;3.75;;;;;;;;;;4995154;28;20064;-69
2021/11/23 10:03:40;;;;;;;12.43;3.85;;;;;;;;;;5031259;28;20064;-69
2021/11/23 10:06:30;;;;;;;8.05;4.03;;;;;;;;;;4991580;28;20072;-69
2021/11/23 10:09:00;;;;;;;11.82;4.20;;;;;;;;;;4992262;28;20065;-69
2021/11/23 10:11:33;;;;;;;11.93;5.10;;;;;;;;;;4911646;29;20158;-69
2021/11/23 10:14:06;;;;;;;15.30;5.15;;;;;;;;;;4933648;29;20051;-69
2021/11/23 10:16:42;;;;;;;15.98;6.07;;;;;;;;;;4934244;29;20052;-69
2021/11/23 10:19:15;;;;;;;18.50;6.80;;;;;;;;;;4934038;29;20066;-68
2021/11/23 10:21:58;;;;;;;14.10;4.97;;;;;;;;;;4952506;29;20054;-69
2021/11/23 10:24:36;;;;;;;11.65;4.30;;;;;;;;;;4914252;29;20051;-71
2021/11/23 10:27:18;;;;;;;11.57;4.95;;;;;;;;;;4915031;29;20060;-68
2021/11/23 10:29:52;;;;;;;12.13;5.53;;;;;;;;;;4921511;29;20056;-68
2021/11/23 10:32:22;;;;;;;12.55;6.35;;;;;;;;;;4933647;29;20056;-68
2021/11/23 10:34:53;;;;;;;19.20;6.10;;;;;;;;;;4892380;29;20044;-68
2021/11/23 10:37:33;;;;;;;13.07;5.00;;;;;;;;;;4914382;29;20063;-67
2021/11/23 10:40:25;;;;;;;12.13;4.97;;;;;;;;;;4914634;29;20527;-67
2021/11/23 10:43:04;;;;;;;12.98;5.50;;;;;;;;;;4929820;29;20071;-68
2021/11/23 10:45:41;;;;;;;19.77;5.40;;;;;;;;;;4914877;29;20424;-68
2021/11/23 10:48:15;;;;;;;13.20;4.85;;;;;;;;;;4915790;29;20068;-68
2021/11/23 10:51:08;;;;;;;13.48;4.53;;;;;;;;;;4935312;29;20416;-67
2021/11/23 10:53:45;;;;;;;16.48;5.05;;;;;;;;;;4952001;29;20059;-67
2021/11/23 10:56:19;;;;;;;15.15;4.57;;;;;;;;;;4937031;29;20397;-69
2021/11/23 10:58:50;;;;;;;11.50;3.97;;;;;;;;;;4961944;28;20069;-68
2021/11/23 11:01:20;;;;;;;13.18;3.97;;;;;;;;;;4987968;28;20082;-67
2021/11/23 11:03:51;;;;;;;7.85;3.45;;;;;;;;;;4901415;29;20047;-71
2021/11/23 11:06:22;;;;;;;6.85;2.90;;;;;;;;;;4948318;29;20059;-67
2021/11/23 11:08:53;;;;;;;7.18;2.97;;;;;;;;;;4923512;28;20526;-68
2021/11/23 11:11:24;;;;;;;5.68;2.33;;;;;;;;;;4971866;28;20086;-70
2021/11/23 11:13:54;;;;;;;5.63;3.28;;;;;;;;;;4990504;28;20138;-66
2021/11/23 11:16:28;;;;;;;8.65;2.90;;;;;;;;;;4936305;29;20051;-66
2021/11/23 11:19:10;;;;;;;11.07;2.72;;;;;;;;;;4952463;29;20507;-67
2021/11/23 11:21:49;;;;;;;10.77;3.50;;;;;;;;;;4951745;29;20535;-67
2021/11/23 11:24:32;;;;;;;6.22;3.13;;;;;;;;;;4951988;29;20059;-68
2021/11/23 11:27:14;;;;;;;10.98;3.90;;;;;;;;;;4933128;29;20056;-70
2021/11/23 11:29:45;;;;;;;15.55;3.90;;;;;;;;;;4932996;29;20056;-67
2021/11/23 11:32:46;;;;;;;17.15;4.25;;;;;;;;;;4913561;29;20530;-66
2021/11/23 11:35:25;;;;;;;17.35;3.63;;;;;;;;;;4875420;29;20426;-70
2021/11/23 11:38:00;;;;;;;9.40;4.30;;;;;;;;;;4872748;29;20069;-67
2021/11/23 11:40:34;;;;;;;14.25;3.42;;;;;;;;;;4858981;29;20069;-70
2021/11/23 11:43:07;;;;;;;16.02;3.75;;;;;;;;;;4843584;29;20068;-66
2021/11/23 11:45:42;;;;;;;11.88;3.22;;;;;;;;;;4866353;29;20065;-67
2021/11/23 11:48:32;;;;;;;8.30;2.78;;;;;;;;;;4894753;29;20056;-67
2021/11/23 11:51:27;;;;;;;9.13;2.42;;;;;;;;;;4875825;29;20060;-67
2021/11/23 11:54:01;;;;;;;10.02;2.22;;;;;;;;;;4883949;29;20056;-66
2021/11/23 11:56:38;;;;;;;6.18;1.70;;;;;;;;;;4894302;29;20063;-73
2021/11/23 11:59:25;;;;;;;8.07;1.83;;;;;;;;;;4894395;29;20064;-66
2021/11/23 12:02:18;;;;;;;9.85;1.52;;;;;;;;;;4913083;29;20092;-66
2021/11/23 12:05:03;;;;;;;6.97;1.63;;;;;;;;;;4913009;29;20075;-66
2021/11/23 12:07:39;;;;;;;9.30;1.90;;;;;;;;;;4913401;29;20091;-67
2021/11/23 12:10:25;;;;;;;10.30;1.92;;;;;;;;;;4924691;29;20067;-67
2021/11/23 12:12:56;;;;;;;6.50;3.03;;;;;;;;;;4960012;28;20055;-68
2021/11/23 12:15:37;;;;;;;7.40;1.60;;;;;;;;;;4989576;28;20050;-66
2021/11/23 12:18:42;;;;;;;3.92;1.75;;;;;;;;;;4989946;28;20057;-67
2021/11/23 12:21:18;;;;;;;8.18;1.70;;;;;;;;;;4931410;29;20078;-66
2021/11/23 12:23:57;;;;;;;5.53;1.50;;;;;;;;;;4945541;29;20062;-69
2021/11/23 12:26:38;;;;;;;2.97;1.50;;;;;;;;;;4881238;29;20055;-66
2021/11/23 12:29:12;;;;;;;3.20;1.35;;;;;;;;;;4912764;29;20071;-67
2021/11/23 12:31:48;;;;;;;6.10;2.10;;;;;;;;;;4881440;29;20052;-66
2021/11/23 12:34:19;;;;;;;6.50;2.40;;;;;;;;;;4890275;29;20135;-68
2021/11/23 12:36:52;;;;;;;2.78;1.13;;;;;;;;;;4875107;29;20049;-67
2021/11/23 12:39:26;;;;;;;3.42;1.20;;;;;;;;;;4882958;29;20065;-66
2021/11/23 12:42:02;;;;;;;3.55;2.33;;;;;;;;;;4893583;29;20094;-66
2021/11/23 12:44:38;;;;;;;6.72;1.92;;;;;;;;;;4878237;29;20067;-66
2021/11/23 12:47:21;;;;;;;2.28;1.23;;;;;;;;;;4885591;29;20061;-67
2021/11/23 12:49:59;;;;;;;4.10;1.75;;;;;;;;;;4875182;29;20048;-66
2021/11/23 12:52:34;;;;;;;3.88;1.13;;;;;;;;;;4893291;29;20057;-66
2021/11/23 12:55:05;;;;;;;2.05;1.27;;;;;;;;;;4878089;29;20060;-71
2021/11/23 12:57:36;;;;;;;3.72;2.78;;;;;;;;;;4918090;29;20423;-66
2021/11/23 13:00:12;;;;;;;3.70;1.35;;;;;;;;;;4969307;28;20055;-69
2021/11/23 13:02:51;;;;;;;5.97;1.40;;;;;;;;;;4969721;28;20059;-67
2021/11/23 13:05:28;;;;;;;7.72;1.42;;;;;;;;;;4989050;28;20065;-65
2021/11/23 13:08:07;;;;;;;5.80;1.30;;;;;;;;;;4940806;28;20061;-68
2021/11/23 13:10:44;;;;;;;4.45;1.10;;;;;;;;;;4946591;29;20052;-70
2021/11/23 13:13:20;;;;;;;3.42;1.02;;;;;;;;;;4969827;28;20066;-68
2021/11/23 13:15:53;;;;;;;3.88;1.20;;;;;;;;;;4971844;28;20046;-66
2021/11/23 13:18:28;;;;;;;4.20;1.17;;;;;;;;;;4954415;28;20051;-66
2021/11/23 13:21:04;;;;;;;5.90;1.58;;;;;;;;;;4973517;28;20062;-66
2021/11/23 13:23:37;;;;;;;4.60;1.20;;;;;;;;;;4973404;28;20063;-66
2021/11/23 13:26:24;;;;;;;7.53;1.33;;;;;;;;;;4973039;28;20058;-72
2021/11/23 13:28:57;;;;;;;4.95;1.50;;;;;;;;;;4973322;28;20066;-67
2021/11/23 13:31:30;;;;;;;6.30;1.42;;;;;;;;;;4953667;29;20051;-66
2021/11/23 13:34:13;;;;;;;3.92;1.42;;;;;;;;;;4953876;29;20258;-69
2021/11/23 13:36:46;;;;;;;5.35;1.50;;;;;;;;;;4951052;29;20062;-71
2021/11/23 13:39:20;;;;;;;7.50;1.50;;;;;;;;;;4915869;29;20412;-65
2021/11/23 13:41:54;;;;;;;3.75;0.95;;;;;;;;;;4916065;29;20079;-65
2021/11/23 13:44:28;;;;;;;3.97;1.13;;;;;;;;;;4915987;29;20072;-66
2021/11/23 13:47:16;;;;;;;2.42;1.20;;;;;;;;;;4915858;29;20070;-66
2021/11/23 13:49:47;;;;;;;3.55;1.08;;;;;;;;;;4934232;29;20472;-65
2021/11/23 13:52:23;;;;;;;4.85;0.85;;;;;;;;;;4934850;29;20060;-68
2021/11/23 13:54:57;;;;;;;2.38;0.80;;;;;;;;;;4955997;28;20062;-65
2021/11/23 13:57:49;;;;;;;3.63;0.82;;;;;;;;;;4993327;28;20046;-66
2021/11/23 14:00:21;;;;;;;5.10;0.68;;;;;;;;;;4953131;28;20062;-65
2021/11/23 14:03:08;;;;;;;3.15;1.00;;;;;;;;;;4908342;28;20499;-72
2021/11/23 14:05:46;;;;;;;5.65;0.85;;;;;;;;;;4953149;28;20051;-65
2021/11/23 14:08:30;;;;;;;4.22;0.90;;;;;;;;;;4958717;28;20050;-66
2021/11/23 14:11:06;;;;;;;3.65;0.77;;;;;;;;;;4968646;28;20051;-67
2021/11/23 14:13:39;;;;;;;4.43;0.70;;;;;;;;;;4953923;28;20062;-66
2021/11/23 14:16:16;;;;;;;3.90;0.98;;;;;;;;;;4953830;28;20554;-66
2021/11/23 14:18:48;;;;;;;4.72;1.17;;;;;;;;;;4952995;28;20063;-65
2021/11/23 14:21:24;;;;;;;3.00;1.05;;;;;;;;;;4980795;28;20058;-66
2021/11/23 14:23:55;;;;;;;3.83;1.08;;;;;;;;;;4952974;28;20055;-65
2021/11/23 14:26:29;;;;;;;5.63;1.20;;;;;;;;;;4951484;28;20066;-65
2021/11/23 14:29:07;;;;;;;2.85;1.13;;;;;;;;;;4952678;28;20058;-65
2021/11/23 14:31:39;;;;;;;5.45;1.10;;;;;;;;;;4920951;28;20047;-68
2021/11/23 14:34:18;;;;;;;2.90;1.00;;;;;;;;;;4939875;28;20500;-70
2021/11/23 14:36:52;;;;;;;1.95;0.82;;;;;;;;;;4971963;28;20067;-66
2021/11/23 14:39:24;;;;;;;2.80;0.98;;;;;;;;;;4991446;28;20408;-65
2021/11/23 14:41:54;;;;;;;;;;;;;;;;;;4952893;29;20067;-65
2021/11/23 14:44:24;;;;;;;2.78;1.10;;;;;;;;;;4953024;29;19922;-67
2021/11/23 14:46:55;;;;;;;3.45;1.27;;;;;;;;;;4897124;29;20061;-70
2021/11/23 14:49:28;;;;;;;4.50;1.13;;;;;;;;;;4912973;29;20064;-65
2021/11/23 14:51:58;;;;;;;3.88;1.23;;;;;;;;;;4914280;29;20060;-66
2021/11/23 14:54:29;;;;;;;3.20;1.15;;;;;;;;;;4895422;29;20053;-65
2021/11/23 14:57:00;;;;;;;4.20;1.20;;;;;;;;;;4895301;29;20056;-65
2021/11/23 14:59:31;;;;;;;4.38;1.60;;;;;;;;;;4895139;29;20053;-65
2021/11/23 15:02:01;;;;;;;5.75;1.15;;;;;;;;;;4882273;29;20065;-65
2021/11/23 15:04:32;;;;;;;4.72;0.80;;;;;;;;;;4876562;29;20387;-65
2021/11/23 15:07:03;;;;;;;6.55;1.02;;;;;;;;;;4900908;29;20064;-65
2021/11/23 15:09:34;;;;;;;4.43;1.30;;;;;;;;;;4914422;29;20071;-68